Time;durP1;ratioP1;P1;durP2;ratioP2;P2;SDS_P1;SDS_P2;PMS_P1;PMS_P2;Temp;Humidity;BMP_temperature;BMP_pressure;BME280_temperature;BME280_humidity;BME280_pressure;Samples;Min_cycle;Max_cycle;Signal;HPM_P1;HPM_P2
2023/10/17 00:01:47;;;;;;;30.92;28.33;;;;;;;21.05;35.15;95533.56;6266940;27;109969;-61
2023/10/17 00:04:51;;;;;;;31.15;28.45;;;;;;;21.06;35.16;95529.81;6268670;27;109281;-60
2023/10/17 00:07:58;;;;;;;31.03;28.43;;;;;;;21.07;35.01;95533.25;6280447;27;109016;-60
2023/10/17 00:11:06;;;;;;;29.75;27.25;;;;;;;21.02;35.09;95520.81;6276254;27;109096;-60
2023/10/17 00:14:12;;;;;;;31.25;28.65;;;;;;;21.01;35.08;95511.25;6273575;27;108864;-60
2023/10/17 00:17:16;;;;;;;30.40;27.90;;;;;;;21.00;35.01;95508.84;6270117;27;108886;-60
2023/10/17 00:20:24;;;;;;;30.95;28.27;;;;;;;21.00;35.22;95506.16;6264493;27;110028;-60
2023/10/17 00:23:31;;;;;;;31.47;28.77;;;;;;;20.98;35.08;95505.66;6275648;27;110166;-60
2023/10/17 00:26:37;;;;;;;31.33;28.63;;;;;;;20.96;35.17;95508.63;6276898;27;110407;-60
2023/10/17 00:29:41;;;;;;;29.83;27.23;;;;;;;20.99;34.92;95505.38;6262654;27;109129;-60
2023/10/17 00:32:46;;;;;;;34.07;31.17;;;;;;;20.96;35.38;95497.19;6263793;27;109307;-60
2023/10/17 00:35:49;;;;;;;35.95;33.05;;;;;;;20.97;35.33;95502.22;6272647;27;109105;-66
2023/10/17 00:38:53;;;;;;;33.35;30.35;;;;;;;20.99;35.35;95496.63;6286497;27;110855;-65
2023/10/17 00:42:16;;;;;;;32.07;29.37;;;;;;;20.97;35.35;95493.44;6250363;27;109074;-65
2023/10/17 00:45:23;;;;;;;32.47;29.77;;;;;;;20.96;35.20;95491.88;6273035;27;109360;-66
2023/10/17 00:48:27;;;;;;;31.20;28.50;;;;;;;20.93;35.23;95487.91;6269557;27;112014;-65
2023/10/17 00:51:32;;;;;;;32.20;29.50;;;;;;;20.92;35.26;95492.44;6260502;27;108958;-65
2023/10/17 00:54:35;;;;;;;33.42;30.63;;;;;;;20.94;35.24;95489.50;6268664;27;109088;-65
2023/10/17 00:57:39;;;;;;;32.22;29.52;;;;;;;20.93;35.29;95483.38;6273707;27;109537;-65
2023/10/17 01:00:48;;;;;;;32.53;29.83;;;;;;;20.92;35.06;95487.13;6274013;27;109431;-66
2023/10/17 01:03:54;;;;;;;35.63;32.63;;;;;;;20.97;35.30;95485.47;6269756;27;109934;-65
2023/10/17 01:07:05;;;;;;;35.20;32.30;;;;;;;20.93;35.44;95487.91;6274752;27;109027;-65
2023/10/17 01:10:13;;;;;;;34.28;31.40;;;;;;;20.96;35.16;95482.03;6278311;27;110366;-65
2023/10/17 01:13:17;;;;;;;35.37;32.37;;;;;;;20.98;35.28;95489.72;6264031;27;109233;-65
2023/10/17 01:16:24;;;;;;;34.25;31.35;;;;;;;20.96;35.02;95481.22;6266627;27;110143;-66
2023/10/17 01:19:28;;;;;;;35.50;32.50;;;;;;;20.91;35.39;95485.53;6281815;27;109011;-65
2023/10/17 01:22:32;;;;;;;35.00;32.10;;;;;;;20.91;35.51;95490.06;6277690;27;110628;-65
2023/10/17 01:25:41;;;;;;;36.28;33.28;;;;;;;20.96;35.34;95497.19;6271076;27;109474;-65
2023/10/17 01:28:46;;;;;;;35.10;32.20;;;;;;;20.90;35.44;95499.94;6278094;27;110514;-65
2023/10/17 01:31:50;;;;;;;33.15;30.33;;;;;;;20.90;35.38;95504.47;6274102;27;110142;-65
2023/10/17 01:34:54;;;;;;;32.83;30.02;;;;;;;20.90;35.30;95493.81;6280031;27;109935;-65
2023/10/17 01:37:57;;;;;;;31.60;28.80;;;;;;;20.87;35.14;95489.06;6285864;27;108806;-65
2023/10/17 01:41:02;;;;;;;30.40;27.90;;;;;;;20.86;35.28;95487.50;6259329;27;109536;-65
2023/10/17 01:44:08;;;;;;;33.10;30.40;;;;;;;20.85;35.25;95485.91;6270863;27;109324;-65
2023/10/17 01:47:11;;;;;;;31.10;28.50;;;;;;;20.84;35.21;95487.00;6277672;27;109005;-65
2023/10/17 01:50:15;;;;;;;32.60;29.95;;;;;;;20.82;35.14;95486.47;6267478;27;109778;-65
2023/10/17 01:53:18;;;;;;;31.00;28.40;;;;;;;20.82;35.22;95492.56;6281828;27;109317;-66
2023/10/17 01:56:26;;;;;;;30.43;27.93;;;;;;;20.88;35.14;95490.66;6272813;27;109428;-65
2023/10/17 01:59:30;;;;;;;30.95;28.35;;;;;;;20.86;35.27;95487.50;6266677;27;111033;-65
2023/10/17 02:02:33;;;;;;;30.70;28.07;;;;;;;20.84;35.29;95487.00;6265941;27;109060;-65
2023/10/17 02:05:37;;;;;;;32.30;29.50;;;;;;;20.83;35.08;95488.03;6270326;27;109394;-66
2023/10/17 02:08:40;;;;;;;32.60;29.80;;;;;;;20.80;35.19;95478.78;6286233;27;110483;-66
2023/10/17 02:11:45;;;;;;;32.72;30.02;;;;;;;20.81;35.43;95487.53;6263466;27;111668;-65
2023/10/17 02:14:48;;;;;;;31.02;28.42;;;;;;;20.80;35.36;95481.44;6268401;27;109263;-65
2023/10/17 02:17:53;;;;;;;33.53;30.83;;;;;;;20.81;35.39;95472.38;6262588;27;110181;-66
2023/10/17 02:21:04;;;;;;;35.22;32.42;;;;;;;20.81;35.39;95476.91;6274957;27;109496;-65
2023/10/17 02:24:08;;;;;;;32.95;30.25;;;;;;;20.73;35.11;95472.25;6252082;27;109428;-65
2023/10/17 02:27:13;;;;;;;32.47;29.88;;;;;;;20.78;35.42;95474.81;6261818;27;109710;-66
2023/10/17 02:30:17;;;;;;;31.93;29.23;;;;;;;20.78;35.55;95478.28;6269875;27;110390;-65
2023/10/17 02:33:20;;;;;;;31.80;29.10;;;;;;;20.76;35.52;95476.97;6264594;27;109225;-65
2023/10/17 02:36:23;;;;;;;31.83;29.10;;;;;;;20.74;35.28;95466.63;6254543;27;109051;-65
2023/10/17 02:39:26;;;;;;;34.60;31.70;;;;;;;20.77;35.23;95468.72;6293813;27;109400;-65
2023/10/17 02:42:31;;;;;;;32.97;30.27;;;;;;;20.78;35.40;95462.31;6279978;27;109300;-65
2023/10/17 02:45:34;;;;;;;33.08;30.33;;;;;;;20.75;35.31;95470.88;6267973;27;109204;-65
2023/10/17 02:48:42;;;;;;;34.33;31.40;;;;;;;20.76;35.20;95479.63;6267912;27;108975;-65
2023/10/17 02:51:46;;;;;;;34.08;31.17;;;;;;;20.74;35.42;95469.28;6277630;27;111583;-65
2023/10/17 02:54:59;;;;;;;33.20;30.30;;;;;;;20.74;35.45;95465.84;6278692;27;109527;-59
2023/10/17 02:58:05;;;;;;;34.97;31.98;;;;;;;20.73;35.19;95465.06;6255809;27;110003;-61
2023/10/17 03:01:08;;;;;;;34.22;31.42;;;;;;;20.72;35.25;95474.09;6272438;27;109645;-58
2023/10/17 03:04:17;;;;;;;33.95;31.15;;;;;;;20.72;35.58;95476.75;6268764;27;109499;-60
2023/10/17 03:07:21;;;;;;;34.40;31.50;;;;;;;20.64;35.70;95456.13;6278062;27;109137;-60
2023/10/17 03:10:37;;;;;;;32.57;29.80;;;;;;;20.74;35.57;95463.97;6261499;27;110383;-60
2023/10/17 03:13:43;;;;;;;33.03;30.13;;;;;;;20.78;35.44;95474.81;6261165;27;108997;-59
2023/10/17 03:16:52;;;;;;;32.70;30.00;;;;;;;20.81;35.30;95480.34;6275171;27;110127;-59
2023/10/17 03:19:57;;;;;;;35.40;32.40;;;;;;;20.81;35.50;95491.00;6262646;27;109727;-59
2023/10/17 03:23:00;;;;;;;35.47;32.38;;;;;;;20.84;35.59;95487.78;6272735;27;109121;-60
2023/10/17 03:26:03;;;;;;;49.75;45.42;;;;;;;20.82;36.07;95476.63;6273673;27;109084;-60
2023/10/17 03:29:14;;;;;;;50.57;46.33;;;;;;;20.82;36.07;95473.94;6294689;27;109120;-60
2023/10/17 03:32:17;;;;;;;51.83;47.72;;;;;;;20.84;36.02;95469.16;6259294;27;110211;-60
2023/10/17 03:35:25;;;;;;;50.90;46.60;;;;;;;20.83;35.91;95467.56;6272992;27;109212;-60
2023/10/17 03:38:30;;;;;;;55.90;51.30;;;;;;;20.84;36.18;95463.06;6274376;27;109457;-60
2023/10/17 03:41:37;;;;;;;54.90;50.35;;;;;;;20.83;36.34;95478.19;6281541;27;108973;-62
2023/10/17 03:44:45;;;;;;;57.97;53.28;;;;;;;20.86;36.57;95474.97;6274256;27;109652;-59
2023/10/17 03:47:53;;;;;;;60.40;55.40;;;;;;;20.79;37.10;95466.56;6272230;27;109595;-59
2023/10/17 03:51:10;;;;;;;54.37;49.87;;;;;;;20.81;36.97;95469.72;6268276;27;109782;-59
2023/10/17 03:54:18;;;;;;;54.90;50.42;;;;;;;20.79;36.88;95463.91;6253137;27;109041;-60
2023/10/17 03:57:25;;;;;;;51.08;46.80;;;;;;;20.81;36.77;95472.38;6280699;27;109366;-60
2023/10/17 04:00:40;;;;;;;47.50;43.50;;;;;;;20.83;36.53;95467.56;6285579;27;109384;-60
2023/10/17 04:03:43;;;;;;;47.58;43.38;;;;;;;20.79;36.66;95460.44;6283762;27;109275;-59
2023/10/17 04:06:48;;;;;;;43.63;39.93;;;;;;;20.83;36.65;95464.91;6275662;27;108972;-57
2023/10/17 04:10:17;;;;;;;25.58;23.17;;;;;;;20.74;35.17;95461.31;6284996;27;109004;-58
2023/10/17 04:13:23;;;;;;;24.97;22.57;;;;;;;20.72;34.70;95470.66;6277998;27;109392;-58
2023/10/17 04:16:34;;;;;;;31.67;28.87;;;;;;;20.80;35.57;95462.81;6266646;27;109511;-58
2023/10/17 04:19:39;;;;;;;31.70;28.90;;;;;;;20.83;36.02;95472.88;6284314;27;109122;-60
2023/10/17 04:22:44;;;;;;;29.57;26.87;;;;;;;20.81;35.75;95464.41;6285985;27;109311;-60
2023/10/17 04:25:50;;;;;;;28.30;25.80;;;;;;;20.84;36.44;95461.19;6285314;27;109100;-60
2023/10/17 04:28:54;;;;;;;25.85;23.55;;;;;;;20.80;35.87;95457.50;6273869;27;109096;-60
2023/10/17 04:32:01;;;;;;;24.87;22.57;;;;;;;20.75;35.96;95456.78;6284982;27;109541;-59
2023/10/17 04:35:07;;;;;;;24.33;22.05;;;;;;;20.72;36.10;95471.44;6285048;27;109225;-60
2023/10/17 04:38:16;;;;;;;24.17;21.98;;;;;;;20.73;35.96;95467.72;6284975;27;109537;-60
2023/10/17 04:41:30;;;;;;;22.70;20.80;;;;;;;20.72;35.94;95460.81;6276973;27;109049;-60
2023/10/17 04:44:36;;;;;;;22.15;20.25;;;;;;;20.71;35.99;95459.22;6285321;27;109034;-60
2023/10/17 04:47:43;;;;;;;22.67;20.47;;;;;;;20.71;35.93;95458.44;6285003;27;109068;-60
2023/10/17 04:50:45;;;;;;;22.17;20.27;;;;;;;20.71;35.84;95459.22;6273555;27;110138;-60
2023/10/17 04:53:49;;;;;;;22.73;20.73;;;;;;;20.58;36.09;95450.09;6284858;27;108913;-60
2023/10/17 04:56:59;;;;;;;22.50;20.50;;;;;;;20.70;36.20;95468.28;6284698;27;109467;-60
2023/10/17 05:00:10;;;;;;;21.73;19.83;;;;;;;20.71;35.82;95467.22;6284584;27;109250;-60
2023/10/17 05:03:20;;;;;;;19.90;18.08;;;;;;;20.72;35.96;95465.34;6273970;27;109133;-60
2023/10/17 05:06:45;;;;;;;22.17;20.20;;;;;;;20.70;35.97;95475.47;6284747;27;109060;-60
2023/10/17 06:17:53;;;;;;;15.15;13.75;;;;;;;20.93;35.29;95506.53;6288625;27;108896;-62
2023/10/17 06:21:18;;;;;;;15.40;14.00;;;;;;;21.07;35.49;95504.00;6282721;27;109059;-62
2023/10/17 06:24:45;;;;;;;14.43;13.13;;;;;;;21.27;35.72;95509.03;6287584;27;110824;-59
2023/10/17 06:34:33;;;;;;;13.88;12.68;;;;;;;21.18;35.16;95510.78;6276664;27;109541;-61
2023/10/17 06:37:36;;;;;;;12.63;11.43;;;;;;;21.19;35.10;95505.16;6288201;27;109213;-59
2023/10/17 06:40:45;;;;;;;12.00;10.80;;;;;;;21.21;34.95;95508.31;6262123;27;109233;-60
2023/10/17 06:43:49;;;;;;;11.25;10.25;;;;;;;21.24;34.97;95509.59;6266240;27;109676;-59
2023/10/17 06:46:58;;;;;;;9.90;8.80;;;;;;;21.26;34.50;95514.63;6282629;27;109133;-60
2023/10/17 06:50:34;;;;;;;10.57;9.57;;;;;;;21.29;34.98;95512.19;6287810;27;109407;-61
2023/10/17 06:53:37;;;;;;;10.00;9.10;;;;;;;21.26;34.98;95509.31;6287600;27;109112;-60
2023/10/17 06:56:41;;;;;;;10.57;9.57;;;;;;;21.36;34.67;95514.50;6276330;27;109664;-59
2023/10/17 06:59:46;;;;;;;10.05;9.05;;;;;;;21.47;34.69;95505.25;6287344;27;111091;-60
2023/10/17 07:02:49;;;;;;;10.30;9.20;;;;;;;21.52;35.09;95500.66;6287553;27;109176;-60
2023/10/17 07:05:55;;;;;;;9.93;9.03;;;;;;;21.55;35.31;95499.28;6287218;27;109294;-61
2023/10/17 07:09:02;;;;;;;9.50;8.60;;;;;;;21.56;35.22;95489.44;6280012;27;109579;-59
2023/10/17 07:12:13;;;;;;;8.75;7.95;;;;;;;21.56;35.38;95486.75;6286679;27;109230;-60
2023/10/17 07:15:19;;;;;;;9.70;8.80;;;;;;;21.51;34.86;95482.31;6286306;27;109085;-60
2023/10/17 07:21:57;;;;;;;10.33;9.43;;;;;;;21.40;35.34;95480.88;6249579;27;108993;-60
2023/10/17 07:25:01;;;;;;;9.48;8.57;;;;;;;21.37;35.10;95479.59;6287007;27;109399;-61
2023/10/17 07:28:10;;;;;;;10.15;9.15;;;;;;;21.35;35.23;95473.78;6286651;27;109021;-61
2023/10/17 07:31:14;;;;;;;9.55;8.65;;;;;;;21.34;35.38;95466.88;6275474;27;109124;-60
2023/10/17 07:34:19;;;;;;;9.60;8.70;;;;;;;21.32;35.36;95462.91;6286551;27;109349;-62
2023/10/17 07:37:24;;;;;;;9.10;8.30;;;;;;;21.32;35.22;95458.34;6288084;27;109143;-62
2023/10/17 07:40:42;;;;;;;9.20;8.40;;;;;;;21.29;34.96;95456.28;6281657;27;109131;-62
2023/10/17 07:43:46;;;;;;;9.40;8.50;;;;;;;21.29;35.27;95458.94;6283602;27;110146;-62
2023/10/17 07:47:04;;;;;;;8.90;8.10;;;;;;;21.29;35.29;95458.16;6287338;27;109554;-62
2023/10/17 07:50:12;;;;;;;8.35;7.55;;;;;;;21.27;35.41;95455.78;6286516;27;110260;-62
2023/10/17 07:53:19;;;;;;;8.55;7.75;;;;;;;21.25;35.18;95457.94;6275477;27;109812;-62
2023/10/17 07:56:24;;;;;;;9.07;8.27;;;;;;;21.22;35.27;95447.88;6286447;27;109238;-62
2023/10/17 07:59:33;;;;;;;8.40;7.60;;;;;;;21.20;35.23;95450.84;6286842;27;110222;-63
2023/10/17 08:02:40;;;;;;;8.20;7.50;;;;;;;21.22;35.38;95445.22;6286276;27;108992;-62
2023/10/17 08:05:58;;;;;;;8.57;7.78;;;;;;;21.26;35.57;95448.09;6275826;27;109163;-62
2023/10/17 08:09:03;;;;;;;7.90;7.20;;;;;;;21.28;35.46;95453.91;6286089;27;109586;-62
2023/10/17 08:12:08;;;;;;;8.80;8.00;;;;;;;21.26;35.38;95448.88;6286508;27;109081;-62
2023/10/17 08:15:19;;;;;;;8.07;7.38;;;;;;;21.23;35.58;95452.13;6275509;27;110103;-62
2023/10/17 08:18:27;;;;;;;7.82;7.13;;;;;;;21.25;35.57;95452.63;6286179;27;109340;-62
2023/10/17 08:21:35;;;;;;;8.27;7.57;;;;;;;21.20;35.57;95452.72;6285282;27;109081;-62
2023/10/17 08:24:40;;;;;;;7.90;7.20;;;;;;;21.20;35.51;95452.72;6285750;27;108598;-63
2023/10/17 08:27:46;;;;;;;7.93;7.22;;;;;;;21.17;35.42;95448.75;6276588;27;110684;-63
2023/10/17 08:30:51;;;;;;;7.63;6.93;;;;;;;21.16;35.53;95455.13;6286099;27;108914;-62
2023/10/17 08:34:05;;;;;;;6.82;6.22;;;;;;;21.15;35.53;95450.13;6285499;27;109340;-62
2023/10/17 08:37:17;;;;;;;7.30;6.70;;;;;;;21.14;35.59;95457.31;6280226;27;110071;-62
2023/10/17 08:43:41;;;;;;;6.75;6.15;;;;;;;21.10;35.63;95429.69;6275152;27;109061;-61
2023/10/17 08:46:44;;;;;;;7.30;6.60;;;;;;;21.10;35.39;95434.22;6285320;27;108978;-62
2023/10/17 08:49:49;;;;;;;7.07;6.40;;;;;;;21.09;35.40;95432.66;6274481;27;109182;-62
2023/10/17 08:52:53;;;;;;;7.80;6.55;;;;;;;21.06;35.51;95443.88;6285016;27;109277;-63
2023/10/17 08:55:56;;;;;;;7.05;6.35;;;;;;;21.05;35.55;95437.75;6286019;27;109059;-62
2023/10/17 08:59:04;;;;;;;7.30;6.60;;;;;;;21.05;35.69;95447.63;6286958;27;110747;-62
2023/10/17 09:02:28;;;;;;;6.60;6.00;;;;;;;21.03;35.52;95450.53;6274792;27;110026;-61
2023/10/17 09:05:33;;;;;;;6.07;5.57;;;;;;;20.99;35.20;95440.75;6284370;27;109495;-62
2023/10/17 09:08:46;;;;;;;6.88;6.28;;;;;;;21.02;35.53;95446.31;6284780;27;110175;-62
2023/10/17 09:12:19;;;;;;;5.95;5.45;;;;;;;21.01;35.41;95438.59;6249583;27;109560;-61
2023/10/17 09:15:27;;;;;;;7.00;6.30;;;;;;;20.99;35.32;95444.19;6273547;27;110165;-61
2023/10/17 09:18:39;;;;;;;6.50;5.90;;;;;;;20.99;35.58;95432.75;6284450;27;108957;-61
2023/10/17 09:21:49;;;;;;;6.40;5.80;;;;;;;20.99;35.55;95425.56;6260435;27;109254;-61
2023/10/17 09:24:56;;;;;;;6.30;5.70;;;;;;;20.98;35.55;95412.56;6258676;27;109061;-61
2023/10/17 09:27:59;;;;;;;6.00;5.50;;;;;;;20.99;35.59;95417.59;6285372;27;109379;-62
2023/10/17 09:31:06;;;;;;;6.32;5.75;;;;;;;20.98;35.66;95408.03;6285063;27;109189;-62
2023/10/17 09:34:13;;;;;;;6.43;5.72;;;;;;;20.99;35.57;95400.84;6279119;27;109311;-62
2023/10/17 09:37:19;;;;;;;5.90;5.40;;;;;;;20.97;35.59;95403.00;6281072;27;111997;-63
2023/10/17 09:40:29;;;;;;;6.30;5.70;;;;;;;20.96;35.52;95402.22;6275543;27;109019;-62
2023/10/17 09:43:33;;;;;;;6.20;5.60;;;;;;;20.97;35.42;95398.47;6284995;27;108848;-62
2023/10/17 09:46:37;;;;;;;5.90;5.30;;;;;;;20.98;35.63;95385.94;6273789;27;110041;-61
2023/10/17 09:49:45;;;;;;;5.50;5.00;;;;;;;20.96;35.58;95380.13;6285073;27;111618;-61
2023/10/17 09:52:56;;;;;;;5.40;4.90;;;;;;;20.96;35.68;95388.13;6285005;27;110118;-62
2023/10/17 09:56:01;;;;;;;5.50;5.00;;;;;;;;;;6284476;27;108930;-62
2023/10/17 09:59:08;;;;;;;5.15;4.65;;;;;;;20.96;35.82;95374.81;6272922;27;109226;-62
2023/10/17 10:02:17;;;;;;;5.70;5.20;;;;;;;20.96;35.56;95369.50;6284693;27;109073;-62
2023/10/17 10:05:21;;;;;;;6.40;5.57;;;;;;;20.96;35.72;95374.81;6284428;27;109045;-62
2023/10/17 10:08:32;;;;;;;5.50;5.00;;;;;;;20.96;35.68;95374.81;6278281;27;109177;-62
2023/10/17 10:11:55;;;;;;;6.07;5.40;;;;;;;20.95;35.57;95375.91;6288049;27;109238;-62
2023/10/17 10:14:58;;;;;;;5.70;5.20;;;;;;;20.94;35.40;95364.47;6288291;27;109342;-62
2023/10/17 10:18:01;;;;;;;5.50;5.00;;;;;;;20.93;35.69;95357.56;6288899;27;108599;-61
2023/10/17 10:21:07;;;;;;;6.00;5.20;;;;;;;20.94;35.68;95364.47;6277786;27;109171;-62
2023/10/17 10:24:18;;;;;;;5.20;4.80;;;;;;;20.93;35.79;95358.34;6288701;27;109181;-62
2023/10/17 10:27:24;;;;;;;6.00;5.40;;;;;;;20.96;35.44;95361.50;6288604;27;108906;-62
2023/10/17 10:30:38;;;;;;;5.30;4.80;;;;;;;20.93;35.51;95355.69;6284184;27;109295;-62
2023/10/17 10:33:41;;;;;;;5.03;4.53;;;;;;;20.93;35.41;95349.59;6283189;27;111015;-61
2023/10/17 10:36:46;;;;;;;5.20;4.72;;;;;;;20.92;35.72;95348.78;6288298;27;109096;-62
2023/10/17 10:40:16;;;;;;;5.30;4.80;;;;;;;20.92;35.68;95359.44;6288221;27;109303;-62
2023/10/17 10:43:20;;;;;;;5.22;4.72;;;;;;;20.92;35.70;95353.31;6277491;27;110985;-62
2023/10/17 10:46:23;;;;;;;4.97;4.50;;;;;;;20.90;35.48;95350.16;6288039;27;109171;-62
2023/10/17 10:49:27;;;;;;;5.33;4.83;;;;;;;20.88;35.84;95353.13;6288466;27;110127;-62
2023/10/17 10:52:31;;;;;;;5.00;4.50;;;;;;;20.86;35.77;95343.84;6288218;27;109096;-62
2023/10/17 10:55:36;;;;;;;5.07;4.57;;;;;;;20.87;35.82;95346.22;6276915;27;110761;-62
2023/10/17 10:58:47;;;;;;;4.82;4.43;;;;;;;20.86;35.67;95349.97;6287517;27;109161;-62
2023/10/17 11:01:50;;;;;;;4.78;4.22;;;;;;;20.85;35.60;95339.63;6287659;27;109255;-62
2023/10/17 11:04:56;;;;;;;4.40;4.00;;;;;;;20.84;35.73;95346.81;6282356;27;110471;-61
2023/10/17 11:08:01;;;;;;;4.82;4.43;;;;;;;20.84;35.83;95343.34;6283751;27;110272;-59
2023/10/17 11:11:06;;;;;;;4.38;3.97;;;;;;;20.82;36.13;95338.31;6287224;27;109688;-59
2023/10/17 11:14:15;;;;;;;4.53;4.13;;;;;;;20.82;35.69;95340.97;6287414;27;108795;-61
2023/10/17 11:17:19;;;;;;;4.40;4.00;;;;;;;20.81;35.76;95327.97;6276122;27;109114;-60
2023/10/17 11:20:23;;;;;;;4.88;4.38;;;;;;;20.81;35.85;95320.75;6287428;27;109916;-59
2023/10/17 11:23:28;;;;;;;4.70;4.30;;;;;;;20.81;35.93;95322.63;6287498;27;109725;-60
2023/10/17 11:26:35;;;;;;;4.30;3.90;;;;;;;20.80;36.08;95308.56;6287518;27;109705;-59
2023/10/17 11:29:38;;;;;;;5.10;4.60;;;;;;;20.81;35.86;95304.81;6276037;27;110708;-60
2023/10/17 11:32:41;;;;;;;4.50;4.10;;;;;;;20.80;35.61;95291.81;6287330;27;110172;-59
2023/10/17 11:35:49;;;;;;;4.57;4.17;;;;;;;20.79;35.76;95293.69;6287130;27;109124;-60
2023/10/17 11:38:56;;;;;;;4.15;3.75;;;;;;;20.81;35.67;95288.06;6282445;27;110820;-60
2023/10/17 11:42:00;;;;;;;4.40;4.00;;;;;;;20.81;36.01;95282.75;6281529;27;109198;-60
2023/10/17 11:45:18;;;;;;;5.07;4.57;;;;;;;20.80;35.79;95283.81;6287129;27;110233;-60
2023/10/17 11:48:40;;;;;;;4.30;3.90;;;;;;;20.79;35.97;95283.03;6287130;27;110503;-60
2023/10/17 11:51:49;;;;;;;4.60;4.20;;;;;;;20.78;35.77;95272.69;6276017;27;109251;-60
2023/10/17 11:54:56;;;;;;;4.60;4.20;;;;;;;20.76;35.73;95270.31;6286524;27;109033;-60
2023/10/17 11:58:01;;;;;;;4.30;3.90;;;;;;;20.77;36.08;95271.91;6286311;27;109159;-59
2023/10/17 12:01:05;;;;;;;4.38;3.97;;;;;;;20.76;35.71;95273.00;6285899;27;109223;-60
2023/10/17 12:04:10;;;;;;;4.28;3.88;;;;;;;20.76;35.79;95274.84;6275344;27;109768;-60
2023/10/17 12:07:15;;;;;;;4.65;4.15;;;;;;;20.75;35.89;95271.41;6286330;27;109455;-60
2023/10/17 12:10:19;;;;;;;4.07;3.67;;;;;;;20.74;35.85;95271.72;6286351;27;110430;-60
2023/10/17 12:13:26;;;;;;;4.40;4.00;;;;;;;20.74;36.08;95277.03;6277115;27;112079;-61
2023/10/17 12:16:29;;;;;;;4.20;3.80;;;;;;;20.74;35.73;95269.84;6285486;27;108937;-62
2023/10/17 12:19:33;;;;;;;4.13;3.80;;;;;;;20.71;35.74;95265.09;6285773;27;110203;-63
2023/10/17 12:22:36;;;;;;;3.78;3.45;;;;;;;20.70;35.84;95263.53;6286080;27;108999;-62
2023/10/17 12:25:42;;;;;;;3.90;3.50;;;;;;;20.70;35.76;95263.53;6274582;27;109037;-61
2023/10/17 12:28:47;;;;;;;3.83;3.47;;;;;;;20.70;35.70;95263.53;6286231;27;108752;-62
2023/10/17 12:31:50;;;;;;;4.60;4.00;;;;;;;20.68;35.97;95263.03;6284312;27;109215;-63
2023/10/17 12:34:54;;;;;;;3.60;3.30;;;;;;;20.65;35.41;95252.94;6285741;27;109773;-62
2023/10/17 12:37:59;;;;;;;3.58;3.28;;;;;;;20.68;35.87;95256.91;6274515;27;108926;-62
2023/10/17 12:41:06;;;;;;;4.10;3.70;;;;;;;20.66;35.83;95254.53;6285368;27;109051;-61
2023/10/17 12:44:11;;;;;;;3.57;3.27;;;;;;;20.63;35.82;95255.13;6285493;27;109141;-62
2023/10/17 12:47:16;;;;;;;3.90;3.50;;;;;;;20.65;35.89;95257.47;6279690;27;109153;-62
2023/10/17 12:50:19;;;;;;;3.50;3.20;;;;;;;20.63;36.00;95255.91;6280891;27;109353;-62
2023/10/17 12:53:23;;;;;;;3.80;3.50;;;;;;;20.65;35.95;95260.94;6285616;27;109280;-61
2023/10/17 12:56:26;;;;;;;4.20;3.80;;;;;;;20.65;35.78;95262.78;6285085;27;109528;-62
2023/10/17 12:59:32;;;;;;;3.53;3.22;;;;;;;20.63;36.11;95263.09;6275048;27;109014;-62
2023/10/17 13:02:35;;;;;;;3.78;3.47;;;;;;;20.63;35.86;95265.75;6285314;27;109285;-61
2023/10/17 13:05:39;;;;;;;3.40;3.10;;;;;;;20.61;35.75;95260.72;6284841;27;109243;-61
2023/10/17 13:08:42;;;;;;;3.67;3.10;;;;;;;20.65;35.92;95268.13;6284857;27;109189;-61
2023/10/17 13:11:46;;;;;;;3.67;3.38;;;;;;;20.68;35.88;95268.34;6274389;27;110092;-61
2023/10/17 13:14:52;;;;;;;6.00;5.40;;;;;;;20.68;36.03;95263.03;6284735;27;109399;-63
2023/10/17 13:17:59;;;;;;;7.50;6.80;;;;;;;20.71;36.14;95259.00;6284747;27;109337;-64
2023/10/17 13:21:12;;;;;;;10.23;9.32;;;;;;;20.68;36.38;95260.38;6279264;27;109029;-62
2023/10/17 13:24:15;;;;;;;9.00;8.20;;;;;;;20.68;36.21;95259.59;6279074;27;109636;-63
2023/10/17 13:27:19;;;;;;;8.80;8.00;;;;;;;20.61;36.36;95258.06;6284860;27;109246;-63
2023/10/17 13:30:27;;;;;;;9.70;8.90;;;;;;;20.58;36.37;95253.34;6284519;27;109314;-62
2023/10/17 13:33:30;;;;;;;8.77;7.97;;;;;;;20.59;36.22;95254.13;6273212;27;110186;-63
2023/10/17 13:36:34;;;;;;;8.30;7.60;;;;;;;20.58;36.34;95257.88;6284846;27;110313;-62
2023/10/17 13:39:37;;;;;;;8.07;7.37;;;;;;;20.56;36.37;95255.50;6284801;27;109116;-62
2023/10/17 13:42:41;;;;;;;8.15;7.45;;;;;;;20.56;36.17;95260.81;6287838;27;112717;-62
2023/10/17 13:45:45;;;;;;;7.97;7.18;;;;;;;20.57;36.54;95258.94;6277839;27;109178;-63
2023/10/17 13:48:49;;;;;;;8.13;7.40;;;;;;;20.56;36.41;95257.38;6288883;27;110649;-62
2023/10/17 13:51:54;;;;;;;8.30;7.60;;;;;;;20.55;36.36;95253.13;6288689;27;110050;-62
2023/10/17 13:54:58;;;;;;;7.93;7.20;;;;;;;20.56;36.30;95262.69;6284696;27;108774;-63
2023/10/17 13:58:02;;;;;;;7.90;7.20;;;;;;;20.53;36.37;95250.75;6282774;27;109880;-62
2023/10/17 14:01:27;;;;;;;7.70;7.10;;;;;;;20.53;36.43;95257.94;6288222;27;110071;-62
2023/10/17 14:04:30;;;;;;;7.60;6.90;;;;;;;20.53;36.35;95265.94;6288067;27;109723;-62
2023/10/17 14:07:33;;;;;;;7.25;6.65;;;;;;;20.52;36.29;95261.69;6278353;27;109334;-62
2023/10/17 14:10:37;;;;;;;7.28;6.60;;;;;;;20.55;36.30;95258.44;6288596;27;109713;-62
2023/10/17 14:13:41;;;;;;;7.10;6.50;;;;;;;20.53;36.35;95253.44;6262387;27;109503;-62
2023/10/17 14:16:50;;;;;;;7.18;6.47;;;;;;;20.52;36.18;95251.06;6271649;27;109947;-62
2023/10/17 14:20:05;;;;;;;6.30;5.80;;;;;;;20.50;36.23;95256.66;6277379;27;110040;-62
2023/10/17 14:23:12;;;;;;;6.78;6.18;;;;;;;20.45;36.24;95242.66;6289113;27;108883;-62
2023/10/17 14:26:16;;;;;;;6.32;5.82;;;;;;;20.46;36.41;95234.38;6288370;27;109027;-62
2023/10/17 14:29:19;;;;;;;7.03;6.33;;;;;;;20.51;36.29;95247.63;6283240;27;109262;-62
2023/10/17 14:32:24;;;;;;;6.70;6.10;;;;;;;20.51;36.31;95247.63;6282988;27;109534;-62
2023/10/17 14:35:33;;;;;;;6.80;6.20;;;;;;;20.49;36.32;95254.28;6266385;27;109142;-62
2023/10/17 14:38:37;;;;;;;6.50;5.90;;;;;;;20.49;36.44;95243.63;6290553;27;109322;-62
2023/10/17 14:41:41;;;;;;;5.67;5.17;;;;;;;20.48;36.47;95240.19;6295595;27;110295;-61
2023/10/17 14:44:45;;;;;;;6.20;5.60;;;;;;;20.50;36.30;95240.72;6288065;27;109234;-62
2023/10/17 14:47:50;;;;;;;6.03;5.43;;;;;;;20.43;36.55;95231.50;6287882;27;109177;-62
2023/10/17 14:50:53;;;;;;;6.00;5.40;;;;;;;20.47;36.27;95237.81;6287995;27;113083;-62
2023/10/17 14:53:57;;;;;;;5.70;5.20;;;;;;;20.45;36.47;95251.41;6251461;27;109231;-62
2023/10/17 14:57:06;;;;;;;6.70;6.00;;;;;;;20.47;36.32;95248.47;6271560;27;112737;-66
2023/10/17 15:00:12;;;;;;;9.82;8.93;;;;;;;20.49;36.79;95248.94;6289135;27;110084;-67
2023/10/17 15:03:17;;;;;;;10.23;9.23;;;;;;;20.50;36.63;95246.03;6284838;27;109458;-67
2023/10/17 15:06:20;;;;;;;14.70;13.20;;;;;;;20.55;36.60;95247.81;6285625;27;108893;-68
2023/10/17 15:09:26;;;;;;;13.60;12.20;;;;;;;20.54;36.60;95243.59;6293588;27;109085;-67
2023/10/17 15:12:30;;;;;;;14.60;13.10;;;;;;;20.55;36.54;95248.59;6293834;27;109206;-67
2023/10/17 15:15:34;;;;;;;15.70;14.20;;;;;;;20.58;36.86;95241.91;6283066;27;109149;-67
2023/10/17 15:18:39;;;;;;;19.10;17.10;;;;;;;20.63;36.91;95250.59;6292101;27;109009;-67
2023/10/17 15:21:43;;;;;;;21.52;19.30;;;;;;;20.67;37.39;95250.81;6293038;27;109477;-67
2023/10/17 15:24:52;;;;;;;22.10;19.87;;;;;;;20.69;37.55;95253.19;6293372;27;111251;-68
2023/10/17 15:27:56;;;;;;;24.45;21.92;;;;;;;20.71;37.56;95259.00;6281067;27;110242;-68
2023/10/17 15:31:03;;;;;;;24.52;22.02;;;;;;;20.72;37.48;95253.38;6293121;27;112260;-68
2023/10/17 15:34:09;;;;;;;26.52;23.83;;;;;;;20.78;39.54;95257.53;6275684;27;110286;-68
2023/10/17 15:37:13;;;;;;;29.13;26.13;;;;;;;20.82;40.04;95257.72;6280683;27;109096;-68
2023/10/17 15:40:21;;;;;;;32.30;29.10;;;;;;;20.88;40.70;95253.91;6285474;27;109209;-69
2023/10/17 15:43:25;;;;;;;32.85;29.65;;;;;;;20.91;40.42;95254.13;6285776;27;108739;-68